Terminal Aerodrome Forecast
Issued by NWS

Home | Current Version | Previous Version | Text Only | Print | Product List | Glossary On
Versions: 1 2 3 4 5 6 7 8 9 10 11 12 13 14 15 16 17
000
FTUS43 KICT 261741
TAFCNU
TAF
KCNU 261741Z 2618/2718 36014G20KT P6SM SKC
     FM262300 VRB04KT P6SM SCT100
     FM270600 03015G22KT P6SM SCT025 BKN050
     FM271000 02014KT P6SM BKN015=

USA.gov is the U.S. government's official web portal to all federal, state and local government web resources and services.